createdAt,value
2024-01-20T00:00:28.724Z,101897.91
2024-01-20T00:02:56.300Z,101898.81
2024-01-20T00:05:25.415Z,101896.25
2024-01-20T00:07:53.110Z,101912.66
2024-01-20T00:10:20.873Z,101910.09
2024-01-20T00:12:48.502Z,101905.75
2024-01-20T00:15:16.141Z,101904.00
2024-01-20T00:17:44.107Z,101892.50
2024-01-20T00:20:12.378Z,101893.38
2024-01-20T00:22:41.379Z,101886.38
2024-01-20T00:25:10.159Z,101888.03
2024-01-20T00:27:39.108Z,101903.81
2024-01-20T00:30:07.935Z,101888.13
2024-01-20T00:32:35.963Z,101886.31
2024-01-20T00:35:07.758Z,101889.84
2024-01-20T00:37:36.856Z,101895.81
2024-01-20T00:40:07.594Z,101895.69
2024-01-20T00:42:35.534Z,101896.66
2024-01-20T00:45:03.573Z,101899.28
2024-01-20T00:47:31.598Z,101897.50
2024-01-20T00:49:59.504Z,101901.91
2024-01-20T00:52:27.248Z,101911.50
2024-01-20T00:54:54.820Z,101901.91
2024-01-20T00:57:23.920Z,101901.06
2024-01-20T00:59:51.508Z,101896.78
2024-01-20T01:02:20.259Z,101901.03
2024-01-20T01:04:47.982Z,101900.03
2024-01-20T01:07:15.736Z,101899.34
2024-01-20T01:09:43.377Z,101910.78
2024-01-20T01:12:11.710Z,101922.13
2024-01-20T01:14:40.687Z,101925.63
2024-01-20T01:17:08.384Z,101925.69
2024-01-20T01:19:36.148Z,101930.00
2024-01-20T01:22:04.531Z,101941.44
2024-01-20T01:24:32.173Z,101932.78
2024-01-20T01:26:59.879Z,101932.84
2024-01-20T01:29:27.651Z,101929.44
2024-01-20T01:31:56.730Z,101929.44
2024-01-20T01:34:24.399Z,101939.13
2024-01-20T01:36:52.001Z,101936.53
2024-01-20T01:39:19.975Z,101934.00
2024-01-20T01:41:47.617Z,101933.28
2024-01-20T01:44:15.476Z,101931.66
2024-01-20T01:46:43.431Z,101939.50
2024-01-20T01:49:12.877Z,101945.75
2024-01-20T01:51:40.947Z,101946.78
2024-01-20T01:54:10.502Z,101940.72
2024-01-20T01:56:38.210Z,101941.69
2024-01-20T01:59:05.787Z,101944.25
2024-01-20T02:01:33.497Z,101945.31
2024-01-20T02:04:01.444Z,101942.69
2024-01-20T02:06:30.561Z,101947.22
2024-01-20T02:08:58.718Z,101945.50
2024-01-20T02:11:26.609Z,101955.19
2024-01-20T02:13:54.908Z,101956.97
2024-01-20T02:16:22.528Z,101951.69
2024-01-20T02:18:50.264Z,101952.69
2024-01-20T02:21:17.974Z,101947.50
2024-01-20T02:23:48.592Z,101948.47
2024-01-20T02:26:16.201Z,101960.78
2024-01-20T02:28:44.018Z,101955.63
2024-01-20T02:31:12.944Z,101954.88
2024-01-20T02:33:40.685Z,101957.53
2024-01-20T02:36:08.643Z,101963.59
2024-01-20T02:38:36.228Z,101964.56
2024-01-20T02:41:05.656Z,101966.38
2024-01-20T02:43:33.326Z,101965.63
2024-01-20T02:46:00.907Z,101967.38
2024-01-20T02:48:28.780Z,101977.78
2024-01-20T02:50:56.475Z,101984.00
2024-01-20T02:53:25.381Z,101981.38
2024-01-20T02:55:53.097Z,101986.72
2024-01-20T02:58:22.227Z,101981.50
2024-01-20T03:00:50.362Z,101978.88
2024-01-20T03:03:18.266Z,101982.31
2024-01-20T03:05:45.979Z,101989.34
2024-01-20T03:08:13.619Z,101983.22
2024-01-20T03:10:41.174Z,101985.88
2024-01-20T03:13:08.763Z,101983.25
2024-01-20T03:15:37.772Z,101987.63
2024-01-20T03:18:05.950Z,101988.63
2024-01-20T03:20:33.581Z,101986.81
2024-01-20T03:23:02.150Z,101986.81
2024-01-20T03:25:29.724Z,101987.72
2024-01-20T03:27:57.381Z,101991.09
2024-01-20T03:30:25.187Z,101992.03
2024-01-20T03:32:54.458Z,101987.59
2024-01-20T03:35:23.530Z,101975.47
2024-01-20T03:37:51.212Z,101983.25
2024-01-20T03:40:18.837Z,101982.44
2024-01-20T03:42:46.472Z,101982.53
2024-01-20T03:45:14.109Z,101988.53
2024-01-20T03:47:41.703Z,101998.97
2024-01-20T03:50:11.525Z,101990.31
2024-01-20T03:52:39.363Z,101999.84
2024-01-20T03:55:08.435Z,101995.41
2024-01-20T03:57:36.058Z,101995.25
2024-01-20T04:00:04.699Z,102004.03
2024-01-20T04:02:32.416Z,102001.53
2024-01-20T04:05:00.020Z,101999.75
2024-01-20T04:07:29.011Z,102005.00
2024-01-20T04:09:56.610Z,102014.59
2024-01-20T04:12:25.177Z,102008.53
2024-01-20T04:14:52.888Z,102002.34
2024-01-20T04:17:20.555Z,101998.88
2024-01-20T04:19:48.270Z,102005.78
2024-01-20T04:22:15.938Z,101999.66
2024-01-20T04:24:44.894Z,102006.69
2024-01-20T04:27:12.533Z,102013.63
2024-01-20T04:29:40.410Z,102017.91
2024-01-20T04:32:08.041Z,102022.31
2024-01-20T04:34:35.693Z,102024.03
2024-01-20T04:37:03.433Z,102022.28
2024-01-20T04:39:31.080Z,102023.09
2024-01-20T04:42:00.208Z,102023.03
2024-01-20T04:44:27.778Z,102027.50
2024-01-20T04:46:55.400Z,102038.75
2024-01-20T04:49:23.052Z,102043.09
2024-01-20T04:51:51.753Z,102049.09
2024-01-20T04:54:19.491Z,102049.94
2024-01-20T04:56:47.066Z,102053.44
2024-01-20T04:59:16.104Z,102052.56
2024-01-20T05:01:43.845Z,102064.75
2024-01-20T05:04:11.493Z,102073.44
2024-01-20T05:06:39.424Z,102062.06
2024-01-20T05:09:07.447Z,102065.50
2024-01-20T05:11:35.057Z,102061.16
2024-01-20T05:14:02.670Z,102063.72
2024-01-20T05:16:31.560Z,102067.31
2024-01-20T05:18:59.409Z,102073.38
2024-01-20T05:21:27.317Z,102075.09
2024-01-20T05:23:54.928Z,102073.31
2024-01-20T05:26:22.521Z,102069.09
2024-01-20T05:28:50.266Z,102068.16
2024-01-20T05:31:17.937Z,102071.56
2024-01-20T05:33:47.156Z,102066.34
2024-01-20T05:36:14.931Z,102064.63
2024-01-20T05:38:42.684Z,102061.19
2024-01-20T05:41:11.595Z,102067.25
2024-01-20T05:43:39.326Z,102077.75
2024-01-20T05:46:07.988Z,102078.56
2024-01-20T05:48:36.809Z,102073.31
2024-01-20T05:51:06.707Z,102084.59
2024-01-20T05:53:34.331Z,102084.56
2024-01-20T05:56:02.176Z,102085.41
2024-01-20T05:58:29.784Z,102096.81
2024-01-20T06:00:57.529Z,102096.81
2024-01-20T06:03:27.217Z,102099.38
2024-01-20T06:05:54.998Z,102102.03
2024-01-20T06:08:24.094Z,102101.94
2024-01-20T06:10:52.450Z,102110.69
2024-01-20T06:13:20.879Z,102105.53
2024-01-20T06:15:48.558Z,102103.75
2024-01-20T06:18:16.455Z,102103.66
2024-01-20T06:20:44.234Z,102103.72
2024-01-20T06:23:11.910Z,102101.88
2024-01-20T06:25:40.878Z,102107.06
2024-01-20T06:28:08.442Z,102120.16
2024-01-20T06:30:36.344Z,102120.28
2024-01-20T06:33:04.731Z,102120.25
2024-01-20T06:35:32.510Z,102122.84
2024-01-20T06:38:00.270Z,102118.44
2024-01-20T06:40:27.889Z,102124.63
2024-01-20T06:42:57.036Z,102121.13
2024-01-20T06:45:24.613Z,102119.31
2024-01-20T06:47:52.366Z,102126.28
2024-01-20T06:50:20.298Z,102123.75
2024-01-20T06:52:47.958Z,102124.63
2024-01-20T06:55:15.694Z,102135.81
2024-01-20T06:57:43.342Z,102130.66
2024-01-20T07:00:13.836Z,102134.13
2024-01-20T07:02:41.438Z,102130.75
2024-01-20T07:05:10.744Z,102133.31
2024-01-20T07:07:39.234Z,102130.66
2024-01-20T07:10:09.770Z,102146.22
2024-01-20T07:12:38.585Z,102137.44
2024-01-20T07:15:07.319Z,102132.38
2024-01-20T07:17:36.477Z,102133.25
2024-01-20T07:20:05.063Z,102141.06
2024-01-20T07:22:32.889Z,102137.56
2024-01-20T07:25:00.529Z,102139.38
2024-01-20T07:27:28.222Z,102136.75
2024-01-20T07:29:56.004Z,102135.94
2024-01-20T07:32:23.810Z,102147.28
2024-01-20T07:34:52.921Z,102149.00
2024-01-20T07:37:20.983Z,102147.28
2024-01-20T07:39:48.830Z,102157.81
2024-01-20T07:42:16.438Z,102159.50
2024-01-20T07:44:44.154Z,102163.84
2024-01-20T07:47:11.968Z,102162.13
2024-01-20T07:49:39.730Z,102160.47
2024-01-20T07:52:08.879Z,102163.94
2024-01-20T07:54:36.567Z,102180.44
2024-01-20T07:57:04.588Z,102169.13
2024-01-20T07:59:32.215Z,102189.22
2024-01-20T08:01:59.886Z,102177.00
2024-01-20T08:04:27.710Z,102182.22
2024-01-20T08:06:55.409Z,102184.72
2024-01-20T08:09:24.669Z,102201.34
2024-01-20T08:11:52.287Z,102201.25
2024-01-20T08:14:19.880Z,102207.50
2024-01-20T08:16:47.457Z,102203.13
2024-01-20T08:19:15.170Z,102208.41
2024-01-20T08:21:44.318Z,102212.69
2024-01-20T08:24:12.031Z,102214.41
2024-01-20T08:26:40.944Z,102218.81
2024-01-20T08:29:08.569Z,102215.22
2024-01-20T08:31:36.335Z,102218.84
2024-01-20T08:34:06.325Z,102231.88
2024-01-20T08:36:34.135Z,102230.13
2024-01-20T08:39:01.829Z,102234.50
2024-01-20T08:41:29.535Z,102230.13
2024-01-20T08:43:58.893Z,102228.28
2024-01-20T08:46:27.045Z,102230.09
2024-01-20T08:48:54.678Z,102224.91
2024-01-20T08:51:22.291Z,102232.63
2024-01-20T08:53:50.116Z,102244.84
2024-01-20T08:56:17.770Z,102237.09
2024-01-20T08:58:45.350Z,102238.84
2024-01-20T09:01:14.243Z,102236.25
2024-01-20T09:03:41.978Z,102244.97
2024-01-20T09:06:09.704Z,102237.97
2024-01-20T09:08:37.351Z,102235.34
2024-01-20T09:11:05.606Z,102227.56
2024-01-20T09:13:33.254Z,102241.53
2024-01-20T09:16:00.853Z,102245.88
2024-01-20T09:18:30.073Z,102235.38
2024-01-20T09:20:57.760Z,102239.72
2024-01-20T09:23:25.397Z,102233.56
2024-01-20T09:25:52.950Z,102237.81
2024-01-20T09:28:20.581Z,102243.97
2024-01-20T09:30:48.253Z,102248.31
2024-01-20T09:33:16.162Z,102242.28
2024-01-20T09:35:47.051Z,102254.44
2024-01-20T09:38:14.730Z,102251.81
2024-01-20T09:40:42.399Z,102260.50
2024-01-20T09:43:11.127Z,102258.75
2024-01-20T09:45:40.219Z,102260.50
2024-01-20T09:48:08.928Z,102267.50
2024-01-20T09:50:36.861Z,102265.75
2024-01-20T09:53:15.195Z,102272.72
2024-01-20T09:55:43.423Z,102274.38
2024-01-20T09:58:13.273Z,102265.69
2024-01-20T10:00:41.540Z,102262.22
2024-01-20T10:03:10.841Z,102266.53
2024-01-20T10:05:40.051Z,102269.09
2024-01-20T10:08:09.259Z,102272.69
2024-01-20T10:10:37.135Z,102270.84
2024-01-20T10:13:05.055Z,102275.06
2024-01-20T10:15:34.976Z,102271.59
2024-01-20T10:18:09.295Z,102279.34
2024-01-20T10:20:37.872Z,102279.19
2024-01-20T10:23:07.485Z,102275.63
2024-01-20T10:25:36.746Z,102272.59
2024-01-20T10:28:04.933Z,102287.31
2024-01-20T10:30:32.845Z,102276.94
2024-01-20T10:35:31.251Z,102280.41
2024-01-20T10:38:02.473Z,102267.25
2024-01-20T10:40:30.068Z,102265.38
2024-01-20T10:43:02.649Z,102276.31
2024-01-20T10:45:38.180Z,102277.22
2024-01-20T10:48:12.509Z,102274.69
2024-01-20T10:50:47.314Z,102274.44
2024-01-20T10:53:15.028Z,102277.00
2024-01-20T10:55:44.242Z,102271.72
2024-01-20T10:58:17.434Z,102265.34
2024-01-20T11:00:46.246Z,102260.78
2024-01-20T11:03:14.755Z,102263.31
2024-01-20T11:05:47.439Z,102269.28
2024-01-20T11:08:15.494Z,102274.34
2024-01-20T11:10:44.414Z,102271.47
2024-01-20T11:13:14.527Z,102261.56
2024-01-20T11:15:42.701Z,102265.78
2024-01-20T11:18:18.274Z,102263.03
2024-01-20T11:20:55.728Z,102268.38
2024-01-20T11:23:23.647Z,102263.88
2024-01-20T11:25:51.302Z,102257.81
2024-01-20T11:28:27.720Z,102248.97
2024-01-20T11:30:55.427Z,102256.81
2024-01-20T11:33:23.539Z,102258.38
2024-01-20T11:35:53.153Z,102261.75
2024-01-20T11:38:20.797Z,102258.97
2024-01-20T11:40:58.554Z,102260.72
2024-01-20T11:43:28.130Z,102258.81
2024-01-20T11:45:56.172Z,102252.56
2024-01-20T11:48:24.162Z,102258.66
2024-01-20T11:50:53.505Z,102257.84
2024-01-20T11:53:22.124Z,102254.38
2024-01-20T11:55:57.075Z,102254.28
2024-01-20T11:58:24.773Z,102248.91
2024-01-20T12:00:54.192Z,102255.84
2024-01-20T12:03:23.423Z,102254.16
2024-01-20T12:05:52.803Z,102248.78
2024-01-20T12:08:21.644Z,102248.78
2024-01-20T12:10:50.781Z,102241.72
2024-01-20T12:13:18.944Z,102235.47
2024-01-20T12:15:48.798Z,102224.97
2024-01-20T12:18:18.461Z,102220.56
2024-01-20T12:20:46.413Z,102213.50
2024-01-20T12:23:21.024Z,102214.31
2024-01-20T12:25:48.796Z,102206.50
2024-01-20T12:28:18.144Z,102202.78
2024-01-20T12:30:45.799Z,102204.44
2024-01-20T12:33:12.526Z,102206.16
2024-01-20T12:35:41.541Z,102195.59
2024-01-20T12:38:09.400Z,102195.28
2024-01-20T12:40:37.743Z,102191.00
2024-01-20T12:43:05.606Z,102195.41
2024-01-20T12:45:33.411Z,102188.28
2024-01-20T12:48:01.100Z,102193.50
2024-01-20T12:50:29.186Z,102192.66
2024-01-20T12:52:58.235Z,102194.50
2024-01-20T12:55:25.899Z,102194.19
2024-01-20T12:57:53.527Z,102172.22
2024-01-20T13:00:21.419Z,102176.53
2024-01-20T13:02:49.234Z,102174.53
2024-01-20T13:05:16.944Z,102172.69
2024-01-20T13:07:44.700Z,102167.38
2024-01-20T13:10:13.953Z,102169.09
2024-01-20T13:12:41.619Z,102174.94
2024-01-20T13:15:10.023Z,102160.56
2024-01-20T13:17:37.726Z,102167.72
2024-01-20T13:20:07.861Z,102167.50
2024-01-20T13:22:35.484Z,102169.16
2024-01-20T13:25:03.100Z,102168.91
2024-01-20T13:27:32.062Z,102170.53
2024-01-20T13:29:59.741Z,102175.75
2024-01-20T13:32:27.497Z,102169.59
2024-01-20T13:34:55.147Z,102166.88
2024-01-20T13:37:25.161Z,102164.84
2024-01-20T13:39:52.974Z,102167.50
2024-01-20T13:42:20.728Z,102165.66
2024-01-20T13:44:49.680Z,102174.34
2024-01-20T13:47:17.296Z,102169.94
2024-01-20T13:49:45.711Z,102180.31
2024-01-20T13:52:13.653Z,102168.63
2024-01-20T13:54:41.612Z,102168.53
2024-01-20T13:57:09.211Z,102169.28
2024-01-20T13:59:37.005Z,102168.22
2024-01-20T14:02:06.315Z,102174.56
2024-01-20T14:04:34.004Z,102191.19
2024-01-20T14:07:06.010Z,102195.31
2024-01-20T14:09:34.561Z,102190.63
2024-01-20T14:12:02.252Z,102185.59
2024-01-20T14:14:30.184Z,102180.53
2024-01-20T14:16:58.550Z,102195.59
2024-01-20T14:19:28.521Z,102189.56
2024-01-20T14:21:56.226Z,102195.47
2024-01-20T14:24:23.897Z,102187.94
2024-01-20T14:26:51.702Z,102198.56
2024-01-20T14:29:19.963Z,102198.69
2024-01-20T14:31:48.620Z,102202.31
2024-01-20T14:34:16.474Z,102206.44
2024-01-20T14:36:47.583Z,102197.13
2024-01-20T14:39:17.808Z,102192.00
2024-01-20T14:41:45.532Z,102191.09
2024-01-20T14:44:13.346Z,102183.44
2024-01-20T14:46:41.122Z,102193.94
2024-01-20T14:49:09.260Z,102188.84
2024-01-20T14:51:37.348Z,102190.66
2024-01-20T14:54:06.427Z,102191.69
2024-01-20T14:56:36.852Z,102194.38
2024-01-20T14:59:04.917Z,102192.72
2024-01-20T15:01:32.818Z,102190.91
2024-01-20T15:04:01.016Z,102184.97
2024-01-20T15:06:29.603Z,102185.13
2024-01-20T15:08:57.630Z,102191.38
2024-01-20T15:11:26.772Z,102190.63
2024-01-20T15:13:54.487Z,102195.09
2024-01-20T15:16:22.197Z,102193.50
2024-01-20T15:18:50.104Z,102195.28
2024-01-20T15:21:17.829Z,102191.06
2024-01-20T15:23:45.426Z,102201.63
2024-01-20T15:26:15.822Z,102202.72
2024-01-20T15:28:45.128Z,102211.53
2024-01-20T15:31:12.824Z,102204.69
2024-01-20T15:33:40.636Z,102210.97
2024-01-20T15:36:08.649Z,102218.06
2024-01-20T15:38:36.722Z,102214.69
2024-01-20T15:41:04.442Z,102214.81
2024-01-20T15:43:31.992Z,102219.38
2024-01-20T15:46:01.078Z,102216.06
2024-01-20T15:48:28.881Z,102213.56
2024-01-20T15:50:56.616Z,102213.72
2024-01-20T15:53:24.297Z,102205.16
2024-01-20T15:55:51.981Z,102208.88
2024-01-20T15:58:19.588Z,102204.75
2024-01-20T16:00:47.318Z,102207.56
2024-01-20T16:03:16.451Z,102203.34
2024-01-20T16:05:44.298Z,102201.84
2024-01-20T16:08:11.929Z,102202.81
2024-01-20T16:10:39.728Z,102212.53
2024-01-20T16:13:07.446Z,102215.25
2024-01-20T16:15:35.064Z,102206.59
2024-01-20T16:18:05.545Z,102204.06
2024-01-20T16:20:35.746Z,102208.47
2024-01-20T16:23:04.086Z,102206.00
2024-01-20T16:25:31.815Z,102206.91
2024-01-20T16:27:59.677Z,102199.19
2024-01-20T16:30:27.641Z,102195.78
2024-01-20T16:32:55.551Z,102196.72
2024-01-20T16:35:23.321Z,102192.41
2024-01-20T16:37:52.515Z,102193.34
2024-01-20T16:40:20.357Z,102192.59
2024-01-20T16:42:48.249Z,102187.50
2024-01-20T16:45:16.167Z,102191.03
2024-01-20T16:47:44.131Z,102197.22
2024-01-20T16:50:11.818Z,102198.19
2024-01-20T16:52:40.205Z,102194.78
2024-01-20T16:55:14.914Z,102194.00
2024-01-20T16:57:44.008Z,102200.19
2024-01-20T17:00:13.211Z,102195.88
2024-01-20T17:02:40.917Z,102199.47
2024-01-20T17:05:08.672Z,102190.78
2024-01-20T17:07:36.425Z,102194.31
2024-01-20T17:10:04.935Z,102193.50
2024-01-20T17:12:34.041Z,102194.41
2024-01-20T17:15:01.882Z,102192.69
2024-01-20T17:17:29.565Z,102191.84
2024-01-20T17:19:59.127Z,102198.84
2024-01-20T17:22:27.038Z,102198.91
2024-01-20T17:24:54.659Z,102184.13
2024-01-20T17:27:22.248Z,102195.50
2024-01-20T17:29:51.340Z,102189.44
2024-01-20T17:32:19.006Z,102189.50
2024-01-20T17:34:46.632Z,102185.13
2024-01-20T17:37:14.877Z,102173.81
2024-01-20T17:39:42.600Z,102179.06
2024-01-20T17:42:10.959Z,102175.59
2024-01-20T17:44:38.678Z,102180.88
2024-01-20T17:47:08.382Z,102177.41
2024-01-20T17:49:36.242Z,102179.16
2024-01-20T17:52:04.348Z,102172.22
2024-01-20T17:54:32.921Z,102174.84
2024-01-20T17:57:00.917Z,102187.97
2024-01-20T17:59:29.426Z,102187.97
2024-01-20T18:01:57.561Z,102190.63
2024-01-20T18:04:26.684Z,102188.91
2024-01-20T18:06:54.518Z,102184.56
2024-01-20T18:09:24.009Z,102192.41
2024-01-20T18:11:53.798Z,102183.69
2024-01-20T18:14:21.468Z,102190.66
2024-01-20T18:16:50.192Z,102191.53
2024-01-20T18:19:18.132Z,102184.56
2024-01-20T18:21:48.001Z,102194.19
2024-01-20T18:24:15.732Z,102192.41
2024-01-20T18:26:43.408Z,102190.72
2024-01-20T18:29:10.950Z,102183.75
2024-01-20T18:31:38.688Z,102189.91
2024-01-20T18:34:06.446Z,102195.13
2024-01-20T18:36:34.212Z,102186.47
2024-01-20T18:39:03.179Z,102194.34
2024-01-20T18:41:30.897Z,102197.81
2024-01-20T18:43:59.513Z,102194.41
2024-01-20T18:46:27.098Z,102194.47
2024-01-20T18:48:54.896Z,102195.34
2024-01-20T18:51:22.592Z,102194.53
2024-01-20T18:53:50.306Z,102194.59
2024-01-20T18:56:19.282Z,102196.38
2024-01-20T18:58:46.916Z,102192.06
2024-01-20T19:01:14.593Z,102193.84
2024-01-20T19:03:42.308Z,102187.81
2024-01-20T19:06:10.051Z,102187.88
2024-01-20T19:08:38.980Z,102186.16
2024-01-20T19:11:08.471Z,102181.78
2024-01-20T19:13:37.593Z,102176.63
2024-01-20T19:16:05.790Z,102176.63
2024-01-20T19:18:34.583Z,102173.16
2024-01-20T19:21:02.290Z,102174.91
2024-01-20T19:23:29.918Z,102167.94
2024-01-20T19:25:58.157Z,102167.94
2024-01-20T19:28:25.881Z,102164.47
2024-01-20T19:30:55.508Z,102169.69
2024-01-20T19:33:23.290Z,102161.84
2024-01-20T19:35:51.114Z,102158.38
2024-01-20T19:38:18.700Z,102165.38
2024-01-20T19:40:46.804Z,102154.91
2024-01-20T19:43:14.528Z,102162.75
2024-01-20T19:45:42.277Z,102164.47
2024-01-20T19:48:13.903Z,102167.13
2024-01-20T19:50:41.577Z,102156.66
2024-01-20T19:53:09.218Z,102168.88
2024-01-20T19:55:37.051Z,102167.97
2024-01-20T19:58:05.026Z,102166.22
2024-01-20T20:00:32.828Z,102162.75
2024-01-20T20:03:01.101Z,102161.84
2024-01-20T20:05:31.470Z,102160.09
2024-01-20T20:08:02.140Z,102150.50
2024-01-20T20:10:30.409Z,102154.88
2024-01-20T20:12:58.396Z,102154.88
2024-01-20T20:15:26.245Z,102154.88
2024-01-20T20:17:53.926Z,102157.47
2024-01-20T20:20:23.784Z,102153.13
2024-01-20T20:22:52.913Z,102152.25
2024-01-20T20:25:20.636Z,102152.25
2024-01-20T20:27:48.470Z,102148.81
2024-01-20T20:30:16.400Z,102137.44
2024-01-20T20:32:44.143Z,102135.72
2024-01-20T20:35:13.054Z,102127.88
2024-01-20T20:37:40.723Z,102135.66
2024-01-20T20:40:11.821Z,102130.41
2024-01-20T20:42:39.470Z,102130.41
2024-01-20T20:45:08.505Z,102131.25
2024-01-20T20:47:36.572Z,102131.25
2024-01-20T20:50:06.438Z,102133.88
2024-01-20T20:52:34.465Z,102121.75
2024-01-20T20:55:02.166Z,102117.47
2024-01-20T20:57:31.645Z,102120.97
2024-01-20T20:59:59.279Z,102117.53
2024-01-20T21:02:26.938Z,102116.72
2024-01-20T21:04:54.603Z,102116.78
2024-01-20T21:07:23.905Z,102114.19
2024-01-20T21:09:53.914Z,102114.25
2024-01-20T21:12:21.744Z,102111.66
2024-01-20T21:14:50.681Z,102104.69
2024-01-20T21:17:18.310Z,102096.88
2024-01-20T21:19:46.163Z,102100.41
2024-01-20T21:22:13.998Z,102096.94
2024-01-20T21:24:41.777Z,102096.88
2024-01-20T21:27:09.495Z,102095.13
2024-01-20T21:29:37.130Z,102089.91
2024-01-20T21:32:07.533Z,102084.69
2024-01-20T21:34:35.428Z,102092.44
2024-01-20T21:37:03.296Z,102087.22
2024-01-20T21:39:30.899Z,102073.25
2024-01-20T21:41:58.496Z,102071.47
2024-01-20T21:44:26.878Z,102067.06
2024-01-20T21:46:54.974Z,102067.06
2024-01-20T21:49:24.043Z,102069.63
2024-01-20T21:51:53.089Z,102069.59
2024-01-20T21:54:20.845Z,102058.28
2024-01-20T21:56:48.556Z,102057.28
2024-01-20T21:59:16.132Z,102052.03
2024-01-20T22:01:43.747Z,102057.16
2024-01-20T22:04:11.560Z,102061.47
2024-01-20T22:06:40.976Z,102051.78
2024-01-20T22:09:08.631Z,102049.03
2024-01-20T22:11:36.375Z,102049.81
2024-01-20T22:14:04.008Z,102050.56
2024-01-20T22:16:31.696Z,102046.09
2024-01-20T22:18:59.439Z,102058.28
2024-01-20T22:21:27.140Z,102052.13
2024-01-20T22:23:56.275Z,102044.94
2024-01-20T22:26:24.379Z,102047.63
2024-01-20T22:28:53.963Z,102039.75
2024-01-20T22:31:22.298Z,102038.84
2024-01-20T22:33:50.243Z,102032.72
2024-01-20T22:36:17.878Z,102035.34
2024-01-20T22:38:46.555Z,102031.00
2024-01-20T22:41:17.638Z,102035.34
2024-01-20T22:43:45.526Z,102027.44
2024-01-20T22:46:17.475Z,102014.41
2024-01-20T22:48:45.342Z,102016.16
2024-01-20T22:51:20.092Z,102014.47
2024-01-20T22:53:47.833Z,102010.06
2024-01-20T22:56:17.645Z,102015.34
2024-01-20T22:58:46.565Z,102013.59
2024-01-20T23:01:14.447Z,102013.59
2024-01-20T23:03:42.219Z,102018.88
2024-01-20T23:06:10.280Z,102019.78
2024-01-20T23:08:37.923Z,102025.03
2024-01-20T23:11:06.110Z,102025.06
2024-01-20T23:13:35.815Z,102021.59
2024-01-20T23:16:03.465Z,102024.25
2024-01-20T23:18:31.148Z,102026.94
2024-01-20T23:20:58.812Z,102019.13
2024-01-20T23:23:27.864Z,102014.75
2024-01-20T23:25:55.482Z,102013.00
2024-01-20T23:28:23.087Z,102007.81
2024-01-20T23:30:52.341Z,102003.53
2024-01-20T23:33:20.215Z,102001.81
2024-01-20T23:35:47.886Z,101996.53
2024-01-20T23:38:15.544Z,101994.78
2024-01-20T23:40:43.302Z,101986.09
2024-01-20T23:43:11.363Z,101995.66
2024-01-20T23:45:38.988Z,101990.41
2024-01-20T23:48:09.668Z,101996.53
2024-01-20T23:50:39.016Z,101983.47
2024-01-20T23:53:06.782Z,101979.91
2024-01-20T23:55:34.374Z,101981.59
2024-01-20T23:58:01.991Z,101975.47
